createdAt,value
2018-12-27T00:01:29.122Z,1.33
2018-12-27T00:03:55.657Z,1.30
2018-12-27T00:06:22.252Z,0.86
2018-12-27T00:08:50.877Z,0.08
2018-12-27T00:11:17.425Z,-0.14
2018-12-27T00:13:44.765Z,-0.07
2018-12-27T00:16:11.386Z,0.28
2018-12-27T00:18:40.230Z,0.62
2018-12-27T00:21:06.764Z,1.00
2018-12-27T00:23:35.386Z,1.13
2018-12-27T00:26:01.932Z,0.61
2018-12-27T00:28:28.477Z,0.66
2018-12-27T00:30:54.999Z,1.10
2018-12-27T00:33:23.940Z,1.27
2018-12-27T00:35:50.472Z,1.13
2018-12-27T00:38:17.001Z,1.09
2018-12-27T00:40:48.094Z,0.97
2018-12-27T00:43:14.736Z,0.52
2018-12-27T00:45:41.200Z,0.65
2018-12-27T00:48:08.179Z,1.18
2018-12-27T00:50:34.696Z,1.14
2018-12-27T00:53:01.216Z,1.22
2018-12-27T00:55:28.120Z,1.07
2018-12-27T00:57:57.219Z,1.19
2018-12-27T01:00:28.364Z,1.45
2018-12-27T01:02:56.728Z,1.30
2018-12-27T01:05:23.281Z,1.15
2018-12-27T01:07:50.169Z,1.59
2018-12-27T01:10:16.994Z,1.61
2018-12-27T01:12:46.235Z,1.59
2018-12-27T01:15:12.780Z,1.79
2018-12-27T01:17:40.187Z,1.46
2018-12-27T01:20:06.776Z,1.35
2018-12-27T01:22:33.517Z,1.56
2018-12-27T01:25:00.168Z,1.08
2018-12-27T01:27:26.897Z,0.95
2018-12-27T01:29:53.644Z,0.56
2018-12-27T01:32:20.201Z,0.53
2018-12-27T01:34:46.736Z,0.48
2018-12-27T01:37:13.275Z,0.76
2018-12-27T01:39:40.475Z,0.91
2018-12-27T01:42:07.143Z,0.81
2018-12-27T01:44:33.680Z,0.82
2018-12-27T01:47:00.228Z,0.95
2018-12-27T01:49:26.855Z,1.07
2018-12-27T01:51:53.375Z,0.99
2018-12-27T01:54:19.973Z,1.04
2018-12-27T01:56:46.497Z,1.06
2018-12-27T01:59:13.047Z,1.22
2018-12-27T02:01:40.738Z,1.35
2018-12-27T02:04:07.288Z,1.33
2018-12-27T02:06:33.982Z,1.32
2018-12-27T02:09:00.538Z,1.13
2018-12-27T02:11:27.088Z,1.09
2018-12-27T02:13:53.631Z,0.80
2018-12-27T02:16:20.181Z,1.11
2018-12-27T02:18:46.734Z,1.38
2018-12-27T02:21:13.282Z,1.02
2018-12-27T02:23:40.773Z,1.29
2018-12-27T02:26:07.368Z,1.02
2018-12-27T02:28:33.965Z,1.29
2018-12-27T02:31:00.598Z,1.18
2018-12-27T02:33:35.034Z,0.63
2018-12-27T02:35:55.368Z,0.35
2018-12-27T02:38:21.993Z,0.45
2018-12-27T02:40:48.513Z,0.77
2018-12-27T02:43:15.051Z,1.11
2018-12-27T02:45:41.740Z,1.24
2018-12-27T02:48:08.497Z,0.90
2018-12-27T02:50:35.068Z,0.44
2018-12-27T02:53:01.627Z,0.33
2018-12-27T02:55:28.253Z,0.41
2018-12-27T02:57:54.762Z,0.27
2018-12-27T03:00:21.339Z,0.39
2018-12-27T03:02:48.042Z,0.34
2018-12-27T03:05:14.570Z,0.41
2018-12-27T03:07:41.411Z,0.57
2018-12-27T03:10:07.941Z,0.73
2018-12-27T03:12:34.504Z,0.95
2018-12-27T03:15:01.197Z,0.87
2018-12-27T03:17:27.835Z,1.30
2018-12-27T03:19:54.392Z,1.12
2018-12-27T03:22:21.002Z,1.34
2018-12-27T03:24:47.690Z,1.38
2018-12-27T03:27:14.252Z,1.38
2018-12-27T03:29:41.694Z,1.34
2018-12-27T03:32:08.237Z,1.13
2018-12-27T03:34:34.775Z,0.97
2018-12-27T03:37:01.304Z,1.13
2018-12-27T03:39:27.824Z,1.12
2018-12-27T03:41:54.441Z,1.26
2018-12-27T03:44:20.986Z,0.92
2018-12-27T03:46:47.528Z,0.60
2018-12-27T03:49:14.132Z,0.24
2018-12-27T03:51:41.808Z,0.47
2018-12-27T03:54:08.331Z,1.15
2018-12-27T03:56:34.867Z,0.84
2018-12-27T03:59:01.403Z,0.82
2018-12-27T04:01:27.978Z,0.55
2018-12-27T04:04:01.440Z,0.72
2018-12-27T04:06:22.869Z,0.83
2018-12-27T04:08:49.424Z,0.83
2018-12-27T04:11:15.921Z,0.99
2018-12-27T04:13:42.541Z,0.82
2018-12-27T04:16:09.090Z,0.30
2018-12-27T04:18:35.713Z,0.61
2018-12-27T04:21:02.298Z,0.54
2018-12-27T04:23:28.815Z,0.78
2018-12-27T04:25:55.445Z,1.03
2018-12-27T04:28:22.097Z,1.26
2018-12-27T04:30:48.801Z,1.31
2018-12-27T04:33:15.328Z,1.35
2018-12-27T04:35:42.380Z,1.38
2018-12-27T04:38:08.920Z,1.14
2018-12-27T04:40:35.471Z,1.30
2018-12-27T04:43:02.110Z,1.70
2018-12-27T04:45:28.673Z,1.75
2018-12-27T04:47:55.182Z,1.43
2018-12-27T04:50:21.796Z,1.40
2018-12-27T04:52:48.343Z,1.57
2018-12-27T04:55:14.948Z,1.26
2018-12-27T04:57:42.451Z,1.11
2018-12-27T05:00:09.031Z,1.32
2018-12-27T05:02:35.603Z,1.38
2018-12-27T05:05:02.184Z,0.75
2018-12-27T05:07:28.696Z,0.70
2018-12-27T05:09:55.292Z,1.12
2018-12-27T05:12:21.852Z,1.15
2018-12-27T05:14:48.405Z,1.66
2018-12-27T05:17:15.029Z,1.45
2018-12-27T05:19:41.630Z,1.33
2018-12-27T05:22:08.268Z,1.35
2018-12-27T05:24:34.854Z,1.38
2018-12-27T05:27:01.501Z,1.10
2018-12-27T05:29:28.230Z,1.44
2018-12-27T05:31:54.765Z,1.60
2018-12-27T05:34:26.194Z,1.51
2018-12-27T05:36:49.767Z,1.36
2018-12-27T05:39:16.323Z,1.21
2018-12-27T05:41:42.961Z,1.34
2018-12-27T05:44:09.495Z,1.23
2018-12-27T05:46:36.197Z,1.26
2018-12-27T05:49:03.813Z,1.16
2018-12-27T05:51:30.457Z,0.69
2018-12-27T05:53:57.078Z,0.64
2018-12-27T05:56:23.678Z,0.47
2018-12-27T05:58:50.523Z,0.41
2018-12-27T06:01:17.058Z,0.23
2018-12-27T06:03:43.573Z,0.73
2018-12-27T06:06:10.129Z,0.85
2018-12-27T06:08:36.799Z,0.87
2018-12-27T06:11:03.416Z,1.34
2018-12-27T06:13:29.981Z,1.21
2018-12-27T06:15:56.733Z,1.37
2018-12-27T06:18:24.285Z,1.13
2018-12-27T06:20:55.196Z,0.96
2018-12-27T06:23:21.781Z,0.99
2018-12-27T06:25:48.543Z,1.35
2018-12-27T06:28:15.084Z,1.80
2018-12-27T06:30:41.654Z,2.42
2018-12-27T06:33:08.301Z,2.12
2018-12-27T06:35:34.944Z,1.63
2018-12-27T06:38:01.503Z,1.77
2018-12-27T06:40:28.468Z,1.71
2018-12-27T06:42:55.018Z,1.68
2018-12-27T06:45:21.815Z,1.67
2018-12-27T06:47:48.745Z,1.85
2018-12-27T06:50:15.364Z,1.97
2018-12-27T06:52:41.891Z,1.99
2018-12-27T06:55:08.422Z,1.99
2018-12-27T06:57:34.946Z,1.96
2018-12-27T07:00:01.502Z,1.54
2018-12-27T07:02:28.072Z,1.75
2018-12-27T07:04:54.609Z,1.98
2018-12-27T07:07:22.274Z,2.01
2018-12-27T07:09:48.801Z,2.18
2018-12-27T07:12:15.342Z,2.16
2018-12-27T07:14:41.901Z,2.33
2018-12-27T07:17:18.893Z,2.48
2018-12-27T07:19:45.430Z,2.73
2018-12-27T07:22:12.005Z,2.66
2018-12-27T07:24:38.583Z,2.58
2018-12-27T07:27:05.070Z,2.45
2018-12-27T07:29:31.615Z,2.35
2018-12-27T07:31:58.176Z,2.58
2018-12-27T07:34:24.679Z,2.70
2018-12-27T07:36:51.481Z,2.36
2018-12-27T07:39:17.864Z,2.41
2018-12-27T07:41:44.395Z,3.02
2018-12-27T07:44:10.903Z,2.90
2018-12-27T07:46:38.569Z,3.12
2018-12-27T07:49:05.144Z,3.18
2018-12-27T07:51:31.734Z,3.06
2018-12-27T07:53:58.283Z,2.66
2018-12-27T07:56:24.888Z,2.79
2018-12-27T07:58:51.383Z,2.68
2018-12-27T08:01:17.946Z,2.74
2018-12-27T08:03:44.461Z,3.12
2018-12-27T08:06:10.966Z,3.41
2018-12-27T08:08:37.579Z,3.39
2018-12-27T08:11:04.114Z,3.72
2018-12-27T08:13:30.651Z,4.37
2018-12-27T08:15:57.426Z,4.72
2018-12-27T08:18:25.787Z,4.30
2018-12-27T08:20:52.635Z,4.37
2018-12-27T08:23:19.305Z,4.84
2018-12-27T08:25:45.830Z,5.15
2018-12-27T08:28:12.630Z,5.14
2018-12-27T08:30:39.219Z,5.09
2018-12-27T08:33:05.806Z,4.96
2018-12-27T08:35:32.373Z,4.95
2018-12-27T08:37:58.924Z,5.04
2018-12-27T08:40:25.766Z,5.10
2018-12-27T08:42:53.408Z,5.17
2018-12-27T08:45:19.991Z,5.27
2018-12-27T08:47:46.543Z,5.25
2018-12-27T08:50:13.081Z,5.05
2018-12-27T08:52:39.653Z,5.55
2018-12-27T08:55:06.282Z,5.75
2018-12-27T08:57:32.821Z,5.98
2018-12-27T08:59:59.674Z,5.77
2018-12-27T09:02:26.171Z,5.55
2018-12-27T09:04:52.735Z,5.65
2018-12-27T09:07:19.318Z,5.75
2018-12-27T09:09:46.154Z,6.01
2018-12-27T09:12:12.798Z,6.26
2018-12-27T09:14:39.306Z,6.39
2018-12-27T09:17:05.833Z,6.58
2018-12-27T09:19:32.180Z,6.17
2018-12-27T09:21:58.727Z,6.33
2018-12-27T09:24:25.352Z,6.85
2018-12-27T09:26:51.882Z,6.70
2018-12-27T09:29:18.445Z,6.88
2018-12-27T09:31:44.982Z,7.05
2018-12-27T09:34:11.548Z,7.30
2018-12-27T09:36:38.330Z,7.44
2018-12-27T09:39:05.387Z,7.78
2018-12-27T09:41:31.897Z,7.93
2018-12-27T09:43:58.633Z,7.52
2018-12-27T09:46:25.182Z,7.79
2018-12-27T09:48:52.004Z,7.97
2018-12-27T09:51:18.516Z,8.08
2018-12-27T09:53:45.276Z,8.23
2018-12-27T09:56:12.129Z,8.16
2018-12-27T09:58:38.958Z,8.35
2018-12-27T10:01:05.805Z,8.45
2018-12-27T10:03:34.128Z,8.73
2018-12-27T10:06:00.672Z,8.35
2018-12-27T10:08:27.421Z,8.27
2018-12-27T10:10:53.964Z,8.53
2018-12-27T10:13:20.472Z,8.48
2018-12-27T10:15:46.973Z,8.43
2018-12-27T10:18:13.554Z,8.70
2018-12-27T10:20:40.102Z,8.74
2018-12-27T10:23:06.597Z,9.63
2018-12-27T10:25:33.151Z,9.69
2018-12-27T10:28:02.775Z,9.80
2018-12-27T10:30:29.345Z,9.74
2018-12-27T10:32:55.898Z,9.48
2018-12-27T10:35:22.397Z,10.04
2018-12-27T10:37:50.683Z,10.22
2018-12-27T10:40:17.256Z,10.53
2018-12-27T10:42:43.800Z,10.48
2018-12-27T10:45:10.466Z,10.79
2018-12-27T10:47:37.321Z,11.09
2018-12-27T10:50:03.884Z,10.99
2018-12-27T10:52:31.409Z,10.89
2018-12-27T10:54:57.922Z,11.35
2018-12-27T10:57:24.491Z,11.48
2018-12-27T10:59:51.543Z,11.62
2018-12-27T11:02:19.394Z,11.84
2018-12-27T11:04:46.038Z,11.97
2018-12-27T11:07:12.527Z,12.09
2018-12-27T11:09:39.057Z,12.32
2018-12-27T11:12:05.598Z,12.17
2018-12-27T11:14:32.378Z,12.13
2018-12-27T11:16:59.661Z,12.16
2018-12-27T11:19:26.233Z,12.15
2018-12-27T11:21:52.845Z,11.88
2018-12-27T11:24:19.380Z,12.30
2018-12-27T11:26:45.944Z,12.46
2018-12-27T11:29:12.463Z,12.49
2018-12-27T11:31:44.284Z,12.37
2018-12-27T11:34:10.767Z,12.15
2018-12-27T11:36:37.307Z,12.60
2018-12-27T11:39:03.831Z,13.01
2018-12-27T11:41:31.617Z,12.87
2018-12-27T11:43:58.114Z,13.09
2018-12-27T11:46:24.620Z,12.85
2018-12-27T11:48:51.163Z,13.01
2018-12-27T11:51:17.709Z,13.58
2018-12-27T11:53:44.237Z,13.73
2018-12-27T11:56:10.788Z,13.77
2018-12-27T11:58:37.305Z,14.15
2018-12-27T12:01:03.826Z,13.52
2018-12-27T12:03:30.378Z,13.67
2018-12-27T12:06:03.180Z,13.55
2018-12-27T12:08:25.157Z,13.89
2018-12-27T12:10:51.713Z,13.84
2018-12-27T12:13:18.260Z,13.97
2018-12-27T12:15:44.774Z,13.64
2018-12-27T12:18:11.341Z,14.13
2018-12-27T12:20:37.885Z,13.30
2018-12-27T12:23:04.388Z,12.68
2018-12-27T12:25:31.038Z,12.52
2018-12-27T12:27:57.550Z,12.05
2018-12-27T12:30:24.068Z,12.22
2018-12-27T12:32:50.585Z,12.87
2018-12-27T12:35:17.127Z,13.02
2018-12-27T12:37:43.659Z,13.29
2018-12-27T12:40:10.194Z,12.56
2018-12-27T12:42:36.720Z,12.11
2018-12-27T12:45:03.275Z,12.15
2018-12-27T12:47:30.511Z,12.55
2018-12-27T12:49:57.024Z,12.71
2018-12-27T12:52:23.535Z,12.54
2018-12-27T12:54:50.175Z,12.45
2018-12-27T12:57:16.756Z,13.14
2018-12-27T12:59:43.290Z,13.29
2018-12-27T13:02:09.836Z,13.45
2018-12-27T13:04:36.326Z,13.64
2018-12-27T13:07:02.858Z,13.57
2018-12-27T13:09:29.427Z,13.31
2018-12-27T13:11:55.986Z,13.13
2018-12-27T13:14:22.518Z,13.35
2018-12-27T13:16:49.030Z,13.34
2018-12-27T13:19:15.633Z,13.74
2018-12-27T13:21:42.170Z,13.19
2018-12-27T13:24:08.751Z,12.47
2018-12-27T13:26:35.287Z,13.06
2018-12-27T13:29:02.291Z,13.09
2018-12-27T13:31:28.812Z,12.97
2018-12-27T13:33:55.372Z,13.07
2018-12-27T13:36:25.437Z,13.22
2018-12-27T13:38:50.346Z,13.23
2018-12-27T13:41:16.865Z,13.49
2018-12-27T13:43:43.462Z,13.05
2018-12-27T13:46:10.025Z,13.48
2018-12-27T13:48:36.633Z,13.57
2018-12-27T13:51:03.179Z,13.59
2018-12-27T13:53:29.849Z,13.71
2018-12-27T13:55:56.417Z,13.56
2018-12-27T13:58:23.245Z,13.62
2018-12-27T14:00:49.769Z,13.72
2018-12-27T14:03:16.322Z,13.56
2018-12-27T14:05:42.823Z,13.61
2018-12-27T14:08:09.383Z,13.35
2018-12-27T14:10:35.900Z,13.14
2018-12-27T14:13:02.446Z,12.89
2018-12-27T14:15:29.065Z,12.96
2018-12-27T14:17:55.586Z,12.66
2018-12-27T14:20:22.179Z,12.80
2018-12-27T14:22:48.901Z,12.48
2018-12-27T14:25:15.414Z,12.73
2018-12-27T14:27:42.013Z,12.58
2018-12-27T14:30:08.966Z,12.34
2018-12-27T14:32:35.755Z,12.12
2018-12-27T14:35:02.804Z,12.05
2018-12-27T14:37:29.331Z,12.23
2018-12-27T14:39:55.926Z,11.90
2018-12-27T14:42:22.826Z,11.61
2018-12-27T14:44:49.394Z,11.70
2018-12-27T14:47:16.388Z,11.42
2018-12-27T14:49:42.963Z,11.20
2018-12-27T14:52:09.986Z,11.08
2018-12-27T14:54:36.547Z,11.16
2018-12-27T14:57:03.249Z,11.07
2018-12-27T14:59:29.844Z,10.84
2018-12-27T15:01:56.349Z,10.55
2018-12-27T15:04:23.373Z,10.63
2018-12-27T15:06:49.877Z,10.28
2018-12-27T15:09:16.509Z,9.75
2018-12-27T15:11:43.051Z,9.77
2018-12-27T15:14:09.583Z,9.72
2018-12-27T15:16:36.111Z,9.62
2018-12-27T15:19:02.656Z,9.38
2018-12-27T15:21:29.208Z,9.28
2018-12-27T15:23:55.722Z,9.18
2018-12-27T15:26:22.231Z,9.08
2018-12-27T15:28:48.788Z,8.94
2018-12-27T15:31:15.308Z,8.75
2018-12-27T15:33:41.847Z,8.43
2018-12-27T15:36:08.419Z,8.34
2018-12-27T15:38:34.945Z,8.28
2018-12-27T15:41:02.528Z,8.26
2018-12-27T15:43:29.068Z,8.20
2018-12-27T15:45:55.594Z,8.15
2018-12-27T15:48:22.163Z,7.98
2018-12-27T15:50:48.794Z,7.89
2018-12-27T15:53:15.311Z,7.84
2018-12-27T15:55:41.871Z,7.76
2018-12-27T15:58:08.457Z,7.73
2018-12-27T16:00:35.793Z,7.72
2018-12-27T16:03:02.847Z,7.83
2018-12-27T16:05:29.385Z,7.88
2018-12-27T16:07:55.931Z,7.79
2018-12-27T16:10:22.449Z,7.73
2018-12-27T16:12:49.007Z,7.56
2018-12-27T16:15:15.538Z,7.14
2018-12-27T16:17:42.117Z,7.30
2018-12-27T16:20:08.646Z,7.33
2018-12-27T16:22:35.182Z,7.08
2018-12-27T16:25:02.070Z,6.98
2018-12-27T16:27:29.788Z,6.80
2018-12-27T16:29:56.316Z,6.88
2018-12-27T16:32:23.152Z,6.55
2018-12-27T16:34:49.709Z,6.54
2018-12-27T16:37:16.251Z,6.57
2018-12-27T16:39:42.772Z,6.26
2018-12-27T16:42:09.348Z,6.25
2018-12-27T16:44:35.869Z,5.84
2018-12-27T16:47:03.484Z,5.93
2018-12-27T16:49:30.365Z,6.00
2018-12-27T16:51:56.870Z,5.86
2018-12-27T16:54:23.389Z,5.96
2018-12-27T16:56:49.925Z,6.04
2018-12-27T16:59:16.470Z,6.37
2018-12-27T17:01:44.181Z,6.28
2018-12-27T17:04:10.756Z,6.30
2018-12-27T17:06:38.292Z,6.31
2018-12-27T17:09:04.833Z,6.24
2018-12-27T17:11:33.676Z,5.87
2018-12-27T17:14:00.181Z,5.83
2018-12-27T17:16:26.744Z,6.16
2018-12-27T17:18:53.325Z,6.03
2018-12-27T17:21:19.866Z,5.81
2018-12-27T17:23:46.396Z,5.65
2018-12-27T17:26:12.974Z,5.75
2018-12-27T17:28:39.529Z,5.64
2018-12-27T17:31:06.107Z,5.21
2018-12-27T17:33:33.703Z,4.95
2018-12-27T17:36:00.211Z,5.02
2018-12-27T17:38:26.844Z,4.95
2018-12-27T17:40:53.384Z,5.02
2018-12-27T17:43:19.877Z,4.99
2018-12-27T17:45:46.434Z,5.40
2018-12-27T17:48:12.967Z,5.17
2018-12-27T17:50:39.463Z,5.21
2018-12-27T17:53:06.017Z,4.79
2018-12-27T17:55:32.587Z,4.78
2018-12-27T17:57:59.102Z,5.02
2018-12-27T18:00:25.684Z,5.04
2018-12-27T18:02:52.343Z,5.13
2018-12-27T18:05:18.956Z,4.78
2018-12-27T18:07:45.498Z,4.71
2018-12-27T18:10:12.086Z,4.58
2018-12-27T18:12:38.611Z,4.48
2018-12-27T18:15:05.155Z,4.49
2018-12-27T18:17:31.714Z,4.73
2018-12-27T18:19:58.366Z,4.78
2018-12-27T18:22:24.997Z,4.44
2018-12-27T18:24:51.810Z,4.51
2018-12-27T18:27:18.523Z,4.37
2018-12-27T18:29:45.164Z,4.26
2018-12-27T18:32:11.762Z,4.48
2018-12-27T18:34:38.327Z,4.60
2018-12-27T18:37:04.829Z,4.34
2018-12-27T18:39:31.538Z,4.40
2018-12-27T18:41:58.116Z,4.59
2018-12-27T18:44:24.751Z,4.95
2018-12-27T18:46:51.318Z,5.06
2018-12-27T18:49:20.718Z,4.89
2018-12-27T18:51:46.252Z,4.72
2018-12-27T18:54:12.868Z,4.95
2018-12-27T18:56:39.375Z,4.73
2018-12-27T18:59:05.949Z,4.72
2018-12-27T19:01:32.480Z,4.59
2018-12-27T19:03:59.585Z,4.43
2018-12-27T19:06:26.129Z,4.19
2018-12-27T19:08:53.312Z,4.57
2018-12-27T19:11:20.158Z,4.80
2018-12-27T19:13:46.758Z,4.45
2018-12-27T19:16:13.313Z,4.86
2018-12-27T19:18:39.796Z,4.89
2018-12-27T19:21:06.559Z,4.84
2018-12-27T19:23:33.162Z,5.10
2018-12-27T19:26:00.137Z,5.15
2018-12-27T19:28:26.715Z,5.40
2018-12-27T19:30:53.266Z,4.83
2018-12-27T19:33:20.036Z,4.91
2018-12-27T19:35:46.692Z,4.75
2018-12-27T19:38:13.539Z,4.75
2018-12-27T19:40:40.211Z,4.91
2018-12-27T19:43:07.248Z,4.90
2018-12-27T19:45:33.764Z,5.01
2018-12-27T19:48:00.295Z,5.17
2018-12-27T19:50:27.885Z,5.33
2018-12-27T19:52:54.423Z,5.04
2018-12-27T19:55:20.920Z,5.02
2018-12-27T19:57:47.529Z,5.16
2018-12-27T20:00:14.061Z,5.22
2018-12-27T20:02:40.661Z,5.32
2018-12-27T20:05:07.197Z,5.16
2018-12-27T20:07:33.714Z,5.14
2018-12-27T20:10:00.252Z,5.27
2018-12-27T20:12:26.806Z,5.13
2018-12-27T20:14:53.450Z,5.08
2018-12-27T20:17:23.045Z,5.10
2018-12-27T22:04:09.869Z,9.18
2018-12-27T22:06:36.944Z,8.24
2018-12-27T22:09:03.779Z,7.13
2018-12-27T22:11:32.063Z,6.11
2018-12-27T22:13:58.894Z,5.49
2018-12-27T22:16:29.538Z,4.98
2018-12-27T22:19:03.544Z,5.13
2018-12-27T22:21:30.377Z,5.21
2018-12-27T22:24:00.207Z,5.30
2018-12-27T22:26:28.680Z,5.21
2018-12-27T22:28:58.401Z,5.32
2018-12-27T22:31:26.771Z,5.84
2018-12-27T22:33:54.129Z,5.88
2018-12-27T22:36:21.369Z,5.60
2018-12-27T22:38:49.475Z,5.40
2018-12-27T22:41:16.402Z,5.15
2018-12-27T22:43:42.934Z,5.06
2018-12-27T22:46:13.582Z,5.15
2018-12-27T22:48:41.441Z,5.38
2018-12-27T22:51:10.298Z,5.49
2018-12-27T22:53:39.040Z,5.86
2018-12-27T22:56:08.578Z,5.57
2018-12-27T22:58:39.335Z,5.53
2018-12-27T23:01:07.697Z,5.59
2018-12-27T23:03:36.115Z,5.71
2018-12-27T23:06:02.971Z,5.70
2018-12-27T23:08:31.893Z,5.70
2018-12-27T23:10:58.869Z,5.68
2018-12-27T23:19:02.541Z,5.46
2018-12-27T23:24:19.768Z,5.51
2018-12-27T23:26:46.401Z,5.55
2018-12-27T23:29:15.212Z,5.34
2018-12-27T23:31:42.057Z,5.31
2018-12-27T23:34:16.263Z,5.53
2018-12-27T23:36:44.651Z,5.21
2018-12-27T23:39:14.162Z,5.30
2018-12-27T23:41:42.435Z,5.69
2018-12-27T23:44:27.941Z,5.50
2018-12-27T23:46:54.479Z,5.32
2018-12-27T23:49:23.507Z,5.34
2018-12-27T23:51:53.271Z,5.16
2018-12-27T23:54:20.642Z,5.18
2018-12-27T23:56:51.057Z,5.34
2018-12-27T23:59:21.549Z,5.31
